Time;durP1;ratioP1;P1;durP2;ratioP2;P2;SDS_P1;SDS_P2;PMS_P1;PMS_P2;Temp;Humidity;BMP_temperature;BMP_pressure;BME280_temperature;BME280_humidity;BME280_pressure;Samples;Min_cycle;Max_cycle;Signal;HPM_P1;HPM_P2
2022/03/15 00:00:07;;;;;;;;;;;;;;;6.28;59.39;97552.16;5003588;28;19950;-72
2022/03/15 00:02:33;;;;;;;;;;;;;;;6.31;58.83;97548.41;4990856;28;20358;-71
2022/03/15 00:04:59;;;;;;;;;;;;;;;6.34;58.74;97545.47;4998936;28;20417;-70
2022/03/15 00:07:26;;;;;;;;;;;;;;;6.36;59.21;97542.69;5006850;28;20018;-71
2022/03/15 00:09:52;;;;;;;;;;;;;;;6.37;59.02;97532.13;5007320;28;19960;-70
2022/03/15 00:12:18;;;;;;;;;;;;;;;6.38;58.89;97533.72;5004577;28;19958;-71
2022/03/15 00:14:44;;;;;;;;;;;;;;;6.40;58.23;97528.34;5004273;28;19992;-71
2022/03/15 00:17:12;;;;;;;;;;;;;;;6.39;58.79;97534.56;5005894;28;19958;-70
2022/03/15 00:19:38;;;;;;;;;;;;;;;6.36;58.55;97534.88;4983899;28;19968;-71
2022/03/15 00:22:06;;;;;;;;;;;;;;;6.34;58.28;97542.88;5003122;28;20048;-71
2022/03/15 00:24:33;;;;;;;;;;;;;;;6.30;58.15;97542.38;5002705;28;20325;-71
2022/03/15 00:27:00;;;;;;;;;;;;;;;6.25;58.34;97538.63;5007907;28;19987;-70
2022/03/15 00:29:26;;;;;;;;;;;;;;;6.21;58.55;97534.72;5006292;28;19956;-71
2022/03/15 00:31:51;;;;;;;;;;;;;;;6.17;58.19;97538.63;5005615;28;19954;-69
2022/03/15 00:34:17;;;;;;;;;;;;;;;6.11;58.72;97542.72;5003686;28;19992;-71
2022/03/15 00:36:43;;;;;;;;;;;;;;;6.07;59.04;97528.38;5005910;28;19962;-71
2022/03/15 00:39:09;;;;;;;;;;;;;;;6.06;58.75;97526.75;5005803;28;19953;-71
2022/03/15 00:41:35;;;;;;;;;;;;;;;6.03;58.51;97532.28;5004688;28;20326;-70
2022/03/15 00:44:01;;;;;;;;;;;;;;;6.00;59.55;97524.78;4998357;28;20469;-71
2022/03/15 00:46:27;;;;;;;;;;;;;;;5.99;59.76;97521.38;5004973;28;19981;-71
2022/03/15 00:48:53;;;;;;;;;;;;;;;5.98;59.46;97517.13;5006318;28;19979;-71
2022/03/15 00:51:19;;;;;;;;;;;;;;;5.97;59.82;97517.31;5008917;28;19953;-72
2022/03/15 00:53:45;;;;;;;;;;;;;;;5.97;60.10;97510.31;5000433;28;20306;-72
2022/03/15 00:56:11;;;;;;;;;;;;;;;5.99;59.78;97516.16;5004145;28;19953;-71
2022/03/15 00:58:37;;;;;;;;;;;;;;;6.00;60.30;97511.78;5003619;28;19960;-72
2022/03/15 01:01:03;;;;;;;;;;;;;;;5.99;60.01;97513.56;5007036;28;19958;-71
2022/03/15 01:03:28;;;;;;;;;;;;;;;5.95;60.83;97512.25;5005766;28;19957;-71
2022/03/15 01:05:55;;;;;;;;;;;;;;;5.90;60.18;97504.09;5001143;28;19958;-71
2022/03/15 01:08:21;;;;;;;;;;;;;;;5.87;60.30;97499.22;5001672;28;20363;-71
2022/03/15 01:10:46;;;;;;;;;;;;;;;5.85;60.33;97501.97;5009135;28;19962;-71
2022/03/15 01:13:14;;;;;;;;;;;;;;;5.85;60.43;97494.16;5003337;28;19979;-71
2022/03/15 01:15:43;;;;;;;;;;;;;;;5.85;60.30;97491.53;5001747;28;19952;-70
2022/03/15 01:18:09;;;;;;;;;;;;;;;5.85;59.93;97486.34;4992596;28;19956;-70
2022/03/15 01:20:38;;;;;;;;;;;;;;;5.87;60.63;97483.59;4998619;28;19958;-72
2022/03/15 01:23:03;;;;;;;;;;;;;;;5.87;60.52;97480.97;5009299;28;20019;-71
2022/03/15 01:25:30;;;;;;;;;;;;;;;5.86;60.62;97488.00;5007555;28;20006;-72
2022/03/15 01:27:56;;;;;;;;;;;;;;;5.86;61.20;97485.38;5006973;28;20416;-71
2022/03/15 01:30:23;;;;;;;;;;;;;;;5.85;60.77;97477.72;5008493;28;19964;-71
2022/03/15 01:32:49;;;;;;;;;;;;;;;5.83;61.78;97472.69;5003930;28;19954;-71
2022/03/15 01:35:14;;;;;;;;;;;;;;;5.79;61.17;97468.75;5005000;28;20405;-71
2022/03/15 01:37:40;;;;;;;;;;;;;;;5.78;61.15;97463.75;5013444;28;20026;-71
2022/03/15 01:40:06;;;;;;;;;;;;;;;5.78;61.08;97463.75;5006650;28;20011;-72
2022/03/15 01:42:32;;;;;;;;;;;;;;;5.77;62.00;97460.31;5005481;28;19967;-71
2022/03/15 01:45:01;;;;;;;;;;;;;;;5.77;60.85;97457.69;5003974;28;19982;-72
2022/03/15 01:47:26;;;;;;;;;;;;;;;5.77;60.94;97457.69;5017148;28;20056;-71
2022/03/15 01:49:53;;;;;;;;;;;;;;;5.77;61.54;97460.31;5007502;28;19994;-70
2022/03/15 01:52:19;;;;;;;;;;;;;;;5.71;61.24;97455.75;5007390;28;19961;-70
2022/03/15 01:54:45;;;;;;;;;;;;;;;5.65;61.92;97459.03;5006784;28;19974;-71
2022/03/15 01:57:11;;;;;;;;;;;;;;;5.61;60.92;97458.53;4991068;28;19984;-70
2022/03/15 01:59:37;;;;;;;;;;;;;;;5.54;61.66;97451.50;5006404;28;19971;-70
2022/03/15 02:02:03;;;;;;;;;;;;;;;5.47;61.94;97452.16;5011514;28;19947;-70
2022/03/15 02:04:29;;;;;;;;;;;;;;;5.44;61.14;97449.88;5005120;28;19955;-71
2022/03/15 02:07:02;;;;;;;;;;;;;;;5.43;62.29;97457.84;5002594;28;20425;-70
2022/03/15 02:09:28;;;;;;;;;;;;;;;5.46;60.34;97458.34;5006928;28;19951;-71
2022/03/15 02:11:54;;;;;;;;;;;;;;;5.50;63.99;97453.59;5008774;28;20368;-71
2022/03/15 02:14:21;;;;;;;;;;;;;;;5.52;61.92;97443.84;5007393;28;19956;-70
2022/03/15 02:16:47;;;;;;;;;;;;;;;5.55;63.29;97451.34;5000851;28;19967;-72
2022/03/15 02:19:13;;;;;;;;;;;;;;;5.60;63.78;97454.28;4995021;28;20442;-71
2022/03/15 02:21:39;;;;;;;;;;;;;;;5.67;63.09;97457.88;5009763;28;20049;-71
2022/03/15 02:24:05;;;;;;;;;;;;;;;5.72;62.04;97449.56;5006216;28;19952;-71
2022/03/15 02:26:31;;;;;;;;;;;;;;;5.75;61.80;97438.03;5004749;28;20439;-72
2022/03/15 02:28:57;;;;;;;;;;;;;;;5.77;62.10;97446.47;4998295;28;19980;-71
2022/03/15 02:31:24;;;;;;;;;;;;;;;5.78;62.42;97454.13;5005051;28;20114;-71
2022/03/15 02:33:50;;;;;;;;;;;;;;;5.81;62.36;97453.81;5001005;28;19956;-70
2022/03/15 02:36:16;;;;;;;;;;;;;;;5.82;61.64;97452.84;5006047;28;20336;-71
2022/03/15 02:38:42;;;;;;;;;;;;;;;5.84;61.33;97448.28;5000950;28;20415;-71
2022/03/15 02:41:08;;;;;;;;;;;;;;;5.83;61.63;97451.03;5005816;28;20416;-71
2022/03/15 02:43:34;;;;;;;;;;;;;;;5.80;62.51;97446.97;5008016;28;20015;-70
2022/03/15 02:46:00;;;;;;;;;;;;;;;5.76;62.00;97445.69;5011180;28;20036;-70
2022/03/15 02:48:26;;;;;;;;;;;;;;;5.70;62.27;97441.94;5002644;28;20439;-70
2022/03/15 02:50:52;;;;;;;;;;;;;;;5.67;62.40;97442.25;5000446;28;19966;-70
2022/03/15 02:53:18;;;;;;;;;;;;;;;5.66;62.26;97440.63;5005101;28;19961;-71
2022/03/15 02:55:46;;;;;;;;;;;;;;;5.64;62.22;97444.38;5009000;28;19990;-71
2022/03/15 02:58:12;;;;;;;;;;;;;;;5.59;61.94;97441.44;5002788;28;20417;-71
2022/03/15 03:00:39;;;;;;;;;;;;;;;5.53;62.82;97437.69;5001202;28;20330;-71
2022/03/15 03:03:05;;;;;;;;;;;;;;;5.51;62.96;97436.22;5014589;28;20014;-71
2022/03/15 03:05:30;;;;;;;;;;;;;;;5.52;63.17;97437.84;5004945;28;19960;-71
2022/03/15 03:07:57;;;;;;;;;;;;;;;5.55;62.81;97429.72;4983920;28;20080;-71
2022/03/15 03:10:22;;;;;;;;;;;;;;;5.56;62.87;97428.75;5006015;28;19957;-71
2022/03/15 03:12:49;;;;;;;;;;;;;;;5.54;62.60;97433.28;5014561;28;20337;-71
2022/03/15 03:15:15;;;;;;;;;;;;;;;5.53;62.74;97440.28;5004994;28;19955;-71
2022/03/15 03:17:41;;;;;;;;;;;;;;;5.55;63.77;97434.94;5005607;28;19969;-71
2022/03/15 03:20:12;;;;;;;;;;;;;;;5.57;63.53;97430.38;5002771;28;19964;-71
2022/03/15 03:22:39;;;;;;;;;;;;;;;5.58;63.24;97429.41;5005739;28;19950;-71
2022/03/15 03:25:05;;;;;;;;;;;;;;;5.59;63.56;97425.84;5005973;28;19959;-72
2022/03/15 03:27:31;;;;;;;;;;;;;;;5.60;63.25;97410.03;5003447;28;20320;-71
2022/03/15 03:29:58;;;;;;;;;;;;;;;5.62;63.33;97413.28;5006761;28;19953;-71
2022/03/15 03:32:25;;;;;;;;;;;;;;;5.65;63.58;97425.19;4977737;28;19957;-72
2022/03/15 03:34:51;;;;;;;;;;;;;;;5.61;62.42;97423.88;5010083;28;20030;-72
2022/03/15 03:37:17;;;;;;;;;;;;;;;5.58;63.07;97419.78;4995296;28;19955;-71
2022/03/15 03:39:43;;;;;;;;;;;;;;;5.58;63.35;97424.19;5006390;28;20029;-72
2022/03/15 03:42:09;;;;;;;;;;;;;;;5.59;63.17;97421.44;4987281;28;20027;-69
2022/03/15 03:44:35;;;;;;;;;;;;;;;5.61;63.26;97419.50;4939130;28;1803157;-71
2022/03/15 03:47:02;;;;;;;;;;;;;;;5.62;62.82;97422.91;5005074;28;19964;-70
2022/03/15 03:49:29;;;;;;;;;;;;;;;5.62;62.77;97418.50;5004698;28;19977;-70
2022/03/15 03:51:55;;;;;;;;;;;;;;;5.65;63.20;97433.00;5005363;28;19962;-70
2022/03/15 03:54:21;;;;;;;;;;;;;;;5.64;63.16;97416.53;5006152;28;19963;-70
2022/03/15 03:56:47;;;;;;;;;;;;;;;5.65;63.17;97420.78;5005039;28;19987;-72
2022/03/15 03:59:13;;;;;;;;;;;;;;;5.64;63.01;97416.53;5004793;28;20000;-70
2022/03/15 04:01:39;;;;;;;;;;;;;;;5.62;62.85;97413.28;5000791;28;20332;-72
2022/03/15 04:04:06;;;;;;;;;;;;;;;5.61;62.52;97419.50;5004774;28;19951;-71
2022/03/15 04:06:32;;;;;;;;;;;;;;;5.60;62.26;97424.84;5004958;28;19955;-71
2022/03/15 04:08:59;;;;;;;;;;;;;;;5.58;62.06;97424.19;4997510;28;19972;-71
2022/03/15 04:11:25;;;;;;;;;;;;;;;5.55;61.92;97419.31;5001715;28;19962;-72
2022/03/15 04:13:51;;;;;;;;;;;;;;;5.54;61.81;97420.28;5006408;28;19956;-72
2022/03/15 04:16:20;;;;;;;;;;;;;;;5.51;61.98;97410.22;5004274;28;19986;-71
2022/03/15 04:18:46;;;;;;;;;;;;;;;5.48;62.07;97414.78;4994757;28;19968;-71
2022/03/15 04:21:12;;;;;;;;;;;;;;;5.48;62.38;97413.94;5009046;28;20385;-71
2022/03/15 04:23:38;;;;;;;;;;;;;;;5.44;62.34;97426.47;5003444;28;19959;-71
2022/03/15 04:26:05;;;;;;;;;;;;;;;5.44;62.94;97425.66;4998281;28;19967;-71
2022/03/15 04:28:30;;;;;;;;;;;;;;;5.40;62.71;97427.75;5006698;28;19965;-71
2022/03/15 04:30:56;;;;;;;;;;;;;;;5.41;62.94;97429.38;5006443;28;19952;-72
2022/03/15 04:33:22;;;;;;;;;;;;;;;5.38;63.08;97426.31;5005901;28;19959;-70
2022/03/15 04:35:48;;;;;;;;;;;;;;;5.36;62.53;97423.84;5002179;28;19997;-71
2022/03/15 04:38:14;;;;;;;;;;;;;;;5.35;62.57;97422.22;5000164;28;20305;-71
2022/03/15 04:40:40;;;;;;;;;;;;;;;5.32;62.74;97426.94;5004890;28;19960;-71
2022/03/15 04:43:06;;;;;;;;;;;;;;;5.29;62.74;97430.66;5007189;28;20033;-70
2022/03/15 04:45:32;;;;;;;;;;;;;;;5.28;63.10;97426.44;4996674;28;20336;-71
2022/03/15 04:47:58;;;;;;;;;;;;;;;5.26;62.66;97426.59;5004455;28;19973;-70
2022/03/15 04:50:24;;;;;;;;;;;;;;;5.25;62.92;97429.38;5002731;28;20020;-72
2022/03/15 04:52:50;;;;;;;;;;;;;;;5.23;62.56;97413.91;4998921;28;20053;-71
2022/03/15 04:55:16;;;;;;;;;;;;;;;5.16;62.79;97423.31;5002487;28;20007;-71
2022/03/15 04:57:42;;;;;;;;;;;;;;;5.09;62.96;97415.34;5005587;28;20011;-70
2022/03/15 05:00:09;;;;;;;;;;;;;;;5.06;62.98;97415.69;5006050;28;20306;-70
2022/03/15 05:02:36;;;;;;;;;;;;;;;5.06;63.35;97413.06;5003160;28;19958;-70
2022/03/15 05:05:03;;;;;;;;;;;;;;;5.07;63.44;97417.28;5005601;28;19964;-71
2022/03/15 05:07:28;;;;;;;;;;;;;;;5.06;63.50;97407.88;5000486;28;19961;-71
2022/03/15 05:12:39;;;;;;;;;;;;;;;5.06;63.10;97412.25;5001855;28;19965;-71
2022/03/15 05:15:05;;;;;;;;;;;;;;;5.07;63.09;97406.88;5003643;28;20306;-71
2022/03/15 05:17:31;;;;;;;;;;;;;;;5.06;63.46;97409.63;5010293;28;20305;-71
2022/03/15 05:19:57;;;;;;;;;;;;;;;5.05;63.94;97408.03;4999691;28;20026;-71
2022/03/15 05:22:23;;;;;;;;;;;;;;;5.01;63.75;97398.91;5000766;28;20406;-72
2022/03/15 05:24:49;;;;;;;;;;;;;;;5.00;63.75;97408.50;5004254;28;19969;-71
2022/03/15 05:27:16;;;;;;;;;;;;;;;5.01;63.50;97406.72;5005396;28;19962;-71
2022/03/15 05:29:42;;;;;;;;;;;;;;;5.01;63.67;97404.94;5002932;28;19984;-71
2022/03/15 05:32:07;;;;;;;;;;;;;;;5.03;63.70;97408.19;4998423;28;20054;-71
2022/03/15 05:34:33;;;;;;;;;;;;;;;5.04;64.04;97402.03;5003473;28;19956;-73
2022/03/15 05:36:59;;;;;;;;;;;;;;;5.04;64.08;97406.38;5004879;28;20033;-71
2022/03/15 05:39:26;;;;;;;;;;;;;;;5.02;64.42;97409.16;5004009;28;20398;-71
2022/03/15 05:41:52;;;;;;;;;;;;;;;4.99;64.06;97404.28;5001332;28;19953;-70
2022/03/15 05:44:18;;;;;;;;;;;;;;;4.98;64.36;97402.66;5002395;28;19953;-71
2022/03/15 05:46:44;;;;;;;;;;;;;;;5.00;64.49;97400.72;4996919;28;19987;-72
2022/03/15 05:49:10;;;;;;;;;;;;;;;5.00;64.44;97390.31;5007289;28;20030;-72
2022/03/15 05:51:36;;;;;;;;;;;;;;;5.00;64.52;97392.91;4986218;28;19964;-70
2022/03/15 05:54:02;;;;;;;;;;;;;;;5.01;64.09;97399.72;5002954;28;20054;-71
2022/03/15 05:56:27;;;;;;;;;;;;;;;5.01;64.53;97393.72;5005426;28;19966;-71
2022/03/15 05:58:53;;;;;;;;;;;;;;;5.01;64.24;97401.53;4999675;28;20037;-70
2022/03/15 06:01:19;;;;;;;;;;;;;;;5.01;64.19;97391.94;5004385;28;20375;-71
2022/03/15 06:03:45;;;;;;;;;;;;;;;5.01;64.69;97384.13;5007391;28;20290;-70
2022/03/15 06:06:11;;;;;;;;;;;;;;;5.02;64.97;97392.75;5010867;28;20385;-70
2022/03/15 06:08:37;;;;;;;;;;;;;;;5.00;64.46;97381.72;5004966;28;20042;-70
2022/03/15 06:11:03;;;;;;;;;;;;;;;4.99;64.62;97385.25;5000025;28;20425;-71
2022/03/15 06:13:29;;;;;;;;;;;;;;;4.99;64.98;97387.88;5009891;28;19953;-71
2022/03/15 06:15:55;;;;;;;;;;;;;;;4.98;64.79;97394.06;5007732;28;19964;-73
2022/03/15 06:18:21;;;;;;;;;;;;;;;4.92;64.79;97385.09;5001418;28;19959;-71
2022/03/15 06:20:47;;;;;;;;;;;;;;;4.91;65.45;97390.44;5004559;28;19962;-71
2022/03/15 06:23:13;;;;;;;;;;;;;;;4.91;65.47;97391.25;5008859;28;20333;-70
2022/03/15 06:25:38;;;;;;;;;;;;;;;4.91;65.72;97395.63;5008335;28;20012;-70
2022/03/15 06:28:04;;;;;;;;;;;;;;;4.93;65.51;97406.69;5006330;28;20049;-70
2022/03/15 06:30:30;;;;;;;;;;;;;;;4.92;65.74;97403.28;4990868;28;19970;-70
2022/03/15 06:32:56;;;;;;;;;;;;;;;4.85;65.27;97387.50;4986312;28;19962;-70
2022/03/15 06:35:22;;;;;;;;;;;;;;;4.86;66.42;97391.72;5005275;28;20009;-70
2022/03/15 06:37:49;;;;;;;;;;;;;;;4.84;66.39;97390.25;5005176;28;19971;-70
2022/03/15 06:40:16;;;;;;;;;;;;;;;4.86;66.23;97393.53;5009136;28;19975;-70
2022/03/15 06:42:43;;;;;;;;;;;;;;;4.83;66.51;97391.22;5005292;28;19956;-70
2022/03/15 06:45:10;;;;;;;;;;;;;;;4.78;66.74;97389.09;5005024;28;19975;-71
2022/03/15 06:47:37;;;;;;;;;;;;;;;4.80;66.24;97389.75;5002380;28;20355;-70
2022/03/15 06:50:04;;;;;;;;;;;;;;;4.79;67.13;97382.13;5005523;28;19975;-70
2022/03/15 06:52:30;;;;;;;;;;;;;;;4.77;66.46;97371.91;5014964;28;20428;-70
2022/03/15 06:54:56;;;;;;;;;;;;;;;4.82;67.05;97382.63;5008112;28;19958;-70
2022/03/15 06:57:22;;;;;;;;;;;;;;;4.87;67.67;97388.16;4991803;28;19969;-70
2022/03/15 06:59:48;;;;;;;;;;;;;;;4.91;66.66;97380.84;4968375;28;19962;-70
2022/03/15 07:02:14;;;;;;;;;;;;;;;4.98;66.35;97381.06;5006665;28;19954;-70
2022/03/15 07:04:40;;;;;;;;;;;;;;;5.04;66.41;97377.78;5005046;28;20405;-70
2022/03/15 07:07:07;;;;;;;;;;;;;;;5.06;65.89;97375.84;5005405;28;19960;-70
2022/03/15 07:09:33;;;;;;;;;;;;;;;5.04;66.13;97373.44;5000731;28;19966;-71
2022/03/15 07:12:00;;;;;;;;;;;;;;;5.09;67.37;97372.94;5006961;28;19964;-71
2022/03/15 07:14:26;;;;;;;;;;;;;;;5.12;66.26;97372.59;5004524;28;19963;-70
2022/03/15 07:16:52;;;;;;;;;;;;;;;5.19;66.91;97380.59;5011391;28;19959;-71
2022/03/15 07:19:18;;;;;;;;;;;;;;;5.26;66.55;97373.78;5005880;28;19960;-70
2022/03/15 07:21:43;;;;;;;;;;;;;;;5.32;66.32;97370.53;5001780;28;20358;-72
2022/03/15 07:24:09;;;;;;;;;;;;;;;5.36;65.57;97371.84;5010270;28;20354;-70
2022/03/15 07:26:35;;;;;;;;;;;;;;;5.37;65.97;97367.44;5007091;28;19964;-74
2022/03/15 07:29:02;;;;;;;;;;;;;;;5.41;66.20;97374.75;5009242;28;19963;-70
2022/03/15 07:31:28;;;;;;;;;;;;;;;5.43;65.50;97372.78;5007353;28;19965;-71
2022/03/15 07:33:54;;;;;;;;;;;;;;;5.45;66.14;97370.84;4999749;28;20077;-71
2022/03/15 07:36:21;;;;;;;;;;;;;;;5.46;66.21;97367.28;5007151;28;19964;-72
2022/03/15 07:38:48;;;;;;;;;;;;;;;5.44;65.49;97363.22;5009330;28;19955;-71
2022/03/15 07:41:16;;;;;;;;;;;;;;;5.42;65.79;97357.38;4998534;28;19963;-72
2022/03/15 07:43:42;;;;;;;;;;;;;;;5.43;66.04;97352.00;5010155;28;19958;-71
2022/03/15 07:46:08;;;;;;;;;;;;;;;5.47;65.84;97358.50;4998532;28;19981;-71
2022/03/15 07:48:34;;;;;;;;;;;;;;;5.49;65.17;97356.53;5010767;28;19968;-71
2022/03/15 07:51:00;;;;;;;;;;;;;;;5.51;65.45;97355.59;5009239;28;19956;-71
2022/03/15 07:53:26;;;;;;;;;;;;;;;5.52;66.72;97362.41;5000939;28;20012;-71
2022/03/15 07:55:52;;;;;;;;;;;;;;;5.56;67.07;97361.91;5005613;28;19965;-71
2022/03/15 07:58:18;;;;;;;;;;;;;;;5.62;70.41;97344.84;5010122;28;19965;-72
2022/03/15 08:00:46;;;;;;;;;;;;;;;5.96;68.16;97352.44;5005782;28;20416;-71
2022/03/15 08:03:12;;;;;;;;;;;;;;;6.38;72.96;97348.75;5000254;28;19953;-71
2022/03/15 08:05:38;;;;;;;;;;;;;;;6.67;67.38;97340.31;5007920;28;20016;-71
2022/03/15 08:08:05;;;;;;;;;;;;;;;6.74;63.37;97332.63;5003514;28;19984;-71
2022/03/15 08:10:31;;;;;;;;;;;;;;;6.59;64.33;97329.13;5007508;28;19981;-71
2022/03/15 08:12:57;;;;;;;;;;;;;;;6.48;63.93;97338.94;4997467;28;20339;-71
2022/03/15 08:15:23;;;;;;;;;;;;;;;6.44;64.88;97342.84;5003453;28;20007;-71
2022/03/15 08:17:49;;;;;;;;;;;;;;;6.43;64.94;97333.44;5003397;28;19968;-71
2022/03/15 08:20:18;;;;;;;;;;;;;;;6.38;66.44;97335.72;5003896;28;20076;-71
2022/03/15 08:22:44;;;;;;;;;;;;;;;6.37;65.84;97341.13;5002207;28;20324;-71
2022/03/15 08:25:10;;;;;;;;;;;;;;;6.33;67.55;97335.41;5007072;28;20341;-71
2022/03/15 08:27:36;;;;;;;;;;;;;;;6.32;66.50;97325.16;5004243;28;19966;-71
2022/03/15 08:30:03;;;;;;;;;;;;;;;6.32;67.54;97326.00;5001764;28;19975;-71
2022/03/15 08:32:29;;;;;;;;;;;;;;;6.35;68.38;97330.06;4999105;28;19956;-71
2022/03/15 08:34:55;;;;;;;;;;;;;;;6.34;67.32;97336.22;5008865;28;20002;-71
2022/03/15 08:37:21;;;;;;;;;;;;;;;6.35;69.39;97335.25;5004854;28;20015;-71
2022/03/15 08:39:47;;;;;;;;;;;;;;;6.34;68.44;97336.22;4998229;28;20051;-72
2022/03/15 08:42:14;;;;;;;;;;;;;;;6.33;69.46;97338.03;5005185;28;20050;-71
2022/03/15 08:44:40;;;;;;;;;;;;;;;6.28;70.31;97327.31;5004698;28;19953;-72
2022/03/15 08:47:06;;;;;;;;;;;;;;;6.26;70.87;97339.69;5002056;28;20340;-71
2022/03/15 08:49:32;;;;;;;;;;;;;;;6.24;69.76;97334.66;5007662;28;20060;-72
2022/03/15 08:51:58;;;;;;;;;;;;;;;6.25;71.25;97335.44;5000037;28;19958;-72
2022/03/15 08:54:25;;;;;;;;;;;;;;;6.25;72.26;97333.66;5004834;28;20015;-71
2022/03/15 08:56:51;;;;;;;;;;;;;;;6.35;77.34;97337.88;4989049;28;19956;-71
2022/03/15 08:59:20;;;;;;;;;;;;;;;6.80;74.16;97331.94;4991030;28;20005;-72
2022/03/15 09:01:46;;;;;;;;;;;;;;;7.00;71.70;97321.88;5003374;28;19964;-72
2022/03/15 09:04:12;;;;;;;;;;;;;;;7.04;70.23;97325.75;4998827;28;20332;-73
2022/03/15 09:06:38;;;;;;;;;;;;;;;7.08;70.60;97314.00;5007836;28;19963;-72
2022/03/15 09:09:04;;;;;;;;;;;;;;;7.06;70.22;97307.34;5001135;28;19975;-72
2022/03/15 09:11:32;;;;;;;;;;;;;;;7.04;70.48;97301.47;5002827;28;19959;-72
2022/03/15 09:13:58;;;;;;;;;;;;;;;6.98;72.62;97291.75;5003754;28;19959;-72
2022/03/15 09:22:23;;;;;;;;;;;;;;;6.94;71.90;97286.06;4934476;29;19977;-72
2022/03/15 09:24:49;;;;;;;;;;;;;;;6.89;71.22;97273.53;4955170;29;20423;-71
2022/03/15 09:27:15;;;;;;;;;;;;;;;6.87;72.77;97272.91;4955572;29;20001;-71
2022/03/15 09:29:41;;;;;;;;;;;;;;;6.90;72.13;97276.97;4955139;29;19978;-71
2022/03/15 09:32:08;;;;;;;;;;;;;;;6.95;72.79;97266.00;4955142;29;19965;-71
2022/03/15 09:34:35;;;;;;;;;;;;;;;6.96;71.84;97258.00;4955195;28;19964;-72
2022/03/15 09:37:01;;;;;;;;;;;;;;;7.01;72.20;97252.25;4958213;29;19961;-71
2022/03/15 09:39:27;;;;;;;;;;;;;;;7.06;73.62;97255.16;4958860;29;19963;-71
2022/03/15 09:41:54;;;;;;;;;;;;;;;7.10;72.59;97248.63;4959087;29;19966;-71
2022/03/15 09:44:19;;;;;;;;;;;;;;;7.15;72.16;97242.88;4959137;29;19953;-71
2022/03/15 09:46:52;;;;;;;;;;;;;;;7.19;72.11;97236.31;4958740;29;19984;-71
2022/03/15 09:49:19;;;;;;;;;;;;;;;7.21;73.26;97235.16;4958591;29;19986;-71
2022/03/15 09:51:45;;;;;;;;;;;;;;;7.24;72.97;97226.94;4958837;29;20316;-71
2022/03/15 09:54:13;;;;;;;;;;;;;;;7.21;71.58;97218.69;4958542;29;19964;-71
2022/03/15 09:56:39;;;;;;;;;;;;;;;7.23;72.79;97219.31;4958344;29;19961;-71
2022/03/15 09:59:14;;;;;;;;;;;;;;;7.24;73.20;97211.28;4958458;29;19959;-71
2022/03/15 10:01:40;;;;;;;;;;;;;;;7.29;73.13;97214.19;4958490;29;19984;-71
2022/03/15 10:04:07;;;;;;;;;;;;;;;7.34;73.10;97211.06;4958450;29;19961;-71
2022/03/15 10:06:34;;;;;;;;;;;;;;;7.38;73.13;97207.09;4958327;29;19977;-71
2022/03/15 10:09:00;;;;;;;;;;;;;;;7.41;71.68;97191.09;4958240;29;19978;-71
2022/03/15 10:11:27;;;;;;;;;;;;;;;7.38;74.16;97185.41;4958141;29;20011;-72
2022/03/15 10:13:53;;;;;;;;;;;;;;;7.36;72.60;97184.78;4958287;29;19970;-72
2022/03/15 10:16:22;;;;;;;;;;;;;;;7.38;73.31;97177.59;4940814;29;19971;-71
2022/03/15 10:18:55;;;;;;;;;;;;;;;7.46;77.17;97183.53;4958027;29;20420;-71
2022/03/15 10:21:24;;;;;;;;;;;;;;;7.76;74.56;97183.50;4957757;29;19983;-71
2022/03/15 10:23:57;;;;;;;;;;;;;;;7.89;72.85;97175.03;4956964;29;19975;-71
2022/03/15 10:26:26;;;;;;;;;;;;;;;7.95;72.31;97169.09;4945254;29;19960;-71
2022/03/15 10:28:53;;;;;;;;;;;;;;;7.98;72.52;97173.97;4957834;29;19966;-72
2022/03/15 10:31:23;;;;;;;;;;;;;;;7.97;71.88;97169.72;4958234;29;20434;-71
2022/03/15 10:33:50;;;;;;;;;;;;;;;7.98;72.07;97171.34;4957622;29;19982;-71
2022/03/15 10:36:17;;;;;;;;;;;;;;;7.98;72.70;97173.97;4957994;29;20426;-71
2022/03/15 10:38:46;;;;;;;;;;;;;;;7.96;72.10;97165.50;4957665;29;20351;-71
2022/03/15 10:41:16;;;;;;;;;;;;;;;7.98;71.90;97160.06;4957698;29;19956;-71
2022/03/15 10:43:42;;;;;;;;;;;;;;;7.98;72.98;97163.50;4957667;29;20337;-71
2022/03/15 10:46:12;;;;;;;;;;;;;;;7.89;73.50;97160.16;4957845;28;19948;-71
2022/03/15 10:48:38;;;;;;;;;;;;;;;7.81;72.79;97152.47;4957476;29;20421;-71
2022/03/15 10:51:04;;;;;;;;;;;;;;;7.71;72.27;97152.72;4957388;29;19974;-71
2022/03/15 10:53:43;;;;;;;;;;;;;;;7.59;74.25;97146.34;4957495;29;20349;-72
2022/03/15 10:56:15;;;;;;;;;;;;;;;7.48;73.84;97141.59;4957433;29;19952;-71
2022/03/15 10:58:48;;;;;;;;;;;;;;;7.43;75.81;97136.94;4957412;29;20328;-71
2022/03/15 11:01:21;;;;;;;;;;;;;;;7.44;75.61;97143.75;4957241;29;19956;-71
2022/03/15 11:03:57;;;;;;;;;;;;;;;7.49;75.28;97132.75;4957385;29;19961;-71
2022/03/15 11:06:27;;;;;;;;;;;;;;;7.58;76.00;97136.09;4957123;29;19978;-72
2022/03/15 11:08:53;;;;;;;;;;;;;;;7.65;77.09;97129.16;4957103;29;19963;-71
2022/03/15 11:11:26;;;;;;;;;;;;;;;7.70;75.57;97124.19;4957210;29;20006;-71
2022/03/15 11:13:59;;;;;;;;;;;;;;;7.70;75.33;97116.34;4936765;29;19967;-71
2022/03/15 11:16:27;;;;;;;;;;;;;;;7.72;76.16;97119.59;4957033;29;20302;-71
2022/03/15 11:18:54;;;;;;;;;;;;;;;7.75;75.73;97114.03;4956845;29;19950;-71
2022/03/15 11:24:14;;;;;;;;;;;;;;;7.71;76.79;97115.38;5404006;23;20334;-72
2022/03/15 11:26:44;;;;;;;;;;;;;;;7.69;75.08;97112.16;4933320;29;19980;-71
2022/03/15 11:29:11;;;;;;;;;;;;;;;7.73;75.90;97105.56;4946511;29;19964;-71
2022/03/15 11:31:38;;;;;;;;;;;;;;;7.78;77.15;97107.63;4946875;29;20401;-71
2022/03/15 11:34:05;;;;;;;;;;;;;;;7.78;76.26;97108.44;4948419;29;19967;-71
2022/03/15 11:36:31;;;;;;;;;;;;;;;7.81;76.94;97097.63;4943467;29;19958;-71
2022/03/15 11:38:57;;;;;;;;;;;;;;;7.86;76.59;97090.03;4944115;29;19955;-71
2022/03/15 11:41:24;;;;;;;;;;;;;;;7.82;79.07;97103.66;4947316;29;20051;-71
2022/03/15 11:44:00;;;;;;;;;;;;;;;7.81;79.19;97083.75;4946622;29;19961;-71
2022/03/15 11:46:43;;;;;;;;;;;;;;;7.82;77.84;97083.56;4931885;29;20208;-71
2022/03/15 11:49:23;;;;;;;;;;;;;;;7.89;77.90;97075.78;4951895;29;20326;-72
2022/03/15 11:52:08;;;;;;;;;;;;;;;7.92;78.29;97065.00;4926892;29;20024;-71
2022/03/15 11:54:52;;;;;;;;;;;;;;;7.93;77.58;97064.78;4947174;29;19959;-71
2022/03/15 11:57:22;;;;;;;;;;;;;;;7.90;77.96;97061.75;4944794;29;19958;-71
2022/03/15 11:59:50;;;;;;;;;;;;;;;7.92;80.66;97055.34;4951509;28;20409;-70
2022/03/15 12:02:29;;;;;;;;;;;;;;;8.44;82.37;97044.78;4950171;29;19955;-70
2022/03/15 12:04:57;;;;;;;;;;;;;;;8.78;76.19;97028.34;4941196;29;19961;-71
2022/03/15 12:07:45;;;;;;;;;;;;;;;8.80;74.24;97009.81;4947574;29;19966;-71
2022/03/15 12:10:11;;;;;;;;;;;;;;;8.67;74.95;97005.31;4946717;29;19968;-71
2022/03/15 12:12:40;;;;;;;;;;;;;;;8.56;77.51;97017.13;4944462;29;19962;-71
2022/03/15 12:15:15;;;;;;;;;;;;;;;8.45;76.46;97015.03;4940641;29;19953;-71
2022/03/15 12:17:41;;;;;;;;;;;;;;;8.33;76.18;96999.81;4927721;29;19954;-71
2022/03/15 12:20:14;;;;;;;;;;;;;;;8.27;76.83;97002.38;4944746;29;20422;-71
2022/03/15 12:22:42;;;;;;;;;;;;;;;8.20;77.51;97006.78;4946714;29;19962;-71
2022/03/15 12:25:13;;;;;;;;;;;;;;;8.12;78.48;97005.88;4947430;29;19991;-71
2022/03/15 12:27:44;;;;;;;;;;;;;;;8.04;78.88;96997.38;4948803;29;19965;-71
2022/03/15 12:30:16;;;;;;;;;;;;;;;7.97;79.46;96993.91;4948897;29;19975;-71
2022/03/15 12:32:52;;;;;;;;;;;;;;;7.92;79.72;96991.88;4945107;29;19961;-71
2022/03/15 12:35:17;;;;;;;;;;;;;;;7.90;80.94;96986.81;4947870;28;19960;-71
2022/03/15 12:37:46;;;;;;;;;;;;;;;7.88;80.13;96986.22;4946528;29;19964;-71
2022/03/15 12:40:12;;;;;;;;;;;;;;;7.89;80.00;96977.38;4946708;29;20341;-71
2022/03/15 12:42:39;;;;;;;;;;;;;;;7.95;80.71;96988.88;4945096;29;20401;-71
2022/03/15 12:45:10;;;;;;;;;;;;;;;7.97;78.89;96975.63;4929221;29;19977;-71
2022/03/15 12:47:41;;;;;;;;;;;;;;;7.95;78.90;96981.03;4945260;29;19962;-71
2022/03/15 12:50:07;;;;;;;;;;;;;;;7.92;81.88;96979.63;4940707;29;20428;-71
2022/03/15 12:52:41;;;;;;;;;;;;;;;7.86;80.23;96959.47;4947062;29;19970;-71
2022/03/15 12:55:15;;;;;;;;;;;;;;;7.84;81.59;96955.44;4947065;29;19959;-71
2022/03/15 12:57:41;;;;;;;;;;;;;;;7.82;82.34;96965.25;4945083;29;19955;-71
2022/03/15 13:00:08;;;;;;;;;;;;;;;7.82;82.70;96957.44;4942850;29;20411;-71
2022/03/15 13:02:36;;;;;;;;;;;;;;;7.80;80.97;96952.38;4945076;29;19962;-71
2022/03/15 13:05:15;;;;;;;;;;;;;;;7.83;81.86;96952.03;4943114;29;19971;-71
2022/03/15 13:07:42;;;;;;;;;;;;;;;7.86;80.99;96956.84;4925680;29;20355;-71